Terminal Aerodrome Forecast
Issued by NWS Blacksburg, VA

Current Version | Previous Version | Graphics & Text | Print | Product List | Glossary On
Versions: 1 2 3 4 5 6 7 8 9 10 11 12 13 14 15 16 17 18 19 20 21 22 23 24 25 26 27 28 29 30 31 32 33 34 35 36 37 38 39 40 41 42 43 44 45 46 47 48 49 50
000
FTUS41 KRNK 051902 AAA
TAFBLF
TAF AMD
KBLF 051902Z 0519/0618 14008KT P6SM VCTS SCT015CB OVC030
     FM052000 19009KT 4SM -SHRA BR SCT015 OVC025
      TEMPO 0520/0524 1SM +TSRA BR OVC010CB
     FM060000 15006KT 4SM -SHRA BR OVC010
     FM060400 14004KT 3SM -SHRA BR OVC007
      TEMPO 0608/0612 1/2SM FG VV004
     FM061300 00000KT 4SM -SHRA BR OVC010=

USA.gov is the U.S. government's official web portal to all federal, state and local government web resources and services.